Terminal Aerodrome Forecast
Issued by NWS

Home | Current Version | Previous Version | Text Only | Print | Product List | Glossary On
Versions: 1 2 3 4 5 6 7 8 9 10 11 12 13 14
720
FTUS46 KHNX 191120
TAFBFL
TAF
KBFL 191120Z 1912/2012 34007KT P6SM BKN025
     FM191800 30006KT P6SM SCT027 BKN050
     FM200400 05007KT P6SM OVC050
     FM200800 10011KT P6SM -RA OVC050=

USA.gov is the U.S. government's official web portal to all federal, state and local government web resources and services.